.
WxDataArchive / Data Records for 2013-03-17
2013-03-16 March 2013 2013-03-18

Data Records for Sunday, 17 March 2013

Time	Temp	Chill	HIndex	Humid	Dewpt	 Wind 	HiWind	WindDir	Rain 	Barom 
-----	----	-----	------	-----	-----	------	------	-------	-----	----- 
00:00	31.9	31.9	31.9	75	24.9	0	1	270	0.00	30.083 
00:05	31.9	31.9	31.9	75	24.9	0	1	270	0.00	30.083 
00:10	31.8	31.8	31.8	75	24.8	0	0	---	0.00	30.083 
00:15	31.8	31.8	31.8	74	24.5	0	0	---	0.00	30.082 
00:20	31.8	31.8	31.8	75	24.8	0	0	---	0.00	30.082 
00:25	31.8	31.8	31.8	74	24.5	0	0	---	0.00	30.082 
00:30	31.8	31.8	31.8	75	24.8	0	0	---	0.00	30.081 
00:35	31.8	31.8	31.8	75	24.8	0	0	---	0.00	30.081 
00:40	31.8	31.8	31.8	74	24.5	0	0	---	0.00	30.081 
00:45	31.8	31.8	31.8	75	24.8	0	0	---	0.00	30.079 
00:50	31.6	31.6	31.6	75	24.6	0	0	---	0.00	30.079 
00:55	31.6	31.6	31.6	75	24.6	0	0	---	0.00	30.079 
01:00	31.6	31.6	31.6	75	24.6	0	1	270	0.00	30.074 
01:05	31.6	31.6	31.6	75	24.6	1	3	270	0.00	30.074 
01:10	31.8	31.8	31.8	76	25.1	1	3	270	0.00	30.074 
01:15	31.6	31.6	31.6	76	24.9	0	3	338	0.00	30.071 
01:20	31.5	31.5	31.5	77	25.1	1	4	292	0.00	30.071 
01:25	31.2	31.2	31.2	76	24.5	1	4	338	0.00	30.071 
01:30	30.9	30.9	30.9	77	24.6	1	4	338	0.00	30.078 
01:35	30.7	30.7	30.7	77	24.4	1	3	292	0.00	30.078 
01:40	30.6	30.6	30.6	77	24.3	1	2	292	0.00	30.078 
01:45	30.4	30.4	30.4	76	23.8	1	4	338	0.00	30.084 
01:50	30.3	30.3	30.3	77	24.0	1	6	338	0.00	30.084 
01:55	30.3	30.3	30.3	76	23.7	1	4	315	0.00	30.084 
02:00	30.1	30.1	30.1	76	23.5	1	3	338	0.00	30.088 
02:05	30.0	30.0	30.0	76	23.4	1	4	270	0.00	30.088 
02:10	29.8	29.8	29.8	76	23.2	1	5	270	0.00	30.088 
02:15	29.8	29.8	29.8	76	23.2	2	5	292	0.00	30.091 
02:20	29.7	29.7	29.7	76	23.1	1	5	338	0.00	30.091 
02:25	29.5	29.5	29.5	76	22.9	1	4	315	0.00	30.091 
02:30	29.5	29.5	29.5	76	22.9	2	6	338	0.00	30.100 
02:35	29.5	29.5	29.5	76	22.9	1	4	338	0.00	30.100 
02:40	29.4	29.4	29.4	76	22.8	2	5	338	0.00	30.100 
02:45	29.3	29.3	29.3	75	22.4	1	4	338	0.00	30.102 
02:50	29.3	29.3	29.3	74	22.1	1	5	338	0.00	30.102 
02:55	29.1	29.1	29.1	74	21.9	1	4	292	0.00	30.102 
03:00	29.0	29.0	29.0	73	21.4	1	6	292	0.00	30.105 
03:05	29.0	29.0	29.0	73	21.4	1	4	338	0.00	30.105 
03:10	28.8	28.8	28.8	73	21.3	1	5	338	0.00	30.105 
03:15	28.8	28.8	28.8	72	20.9	1	4	338	0.00	30.111 
03:20	28.7	28.7	28.7	72	20.8	1	5	338	0.00	30.111 
03:25	28.7	28.7	28.7	72	20.8	1	4	270	0.00	30.111 
03:30	28.5	28.5	28.5	72	20.6	0	3	338	0.00	30.117 
03:35	28.5	28.5	28.5	72	20.6	1	3	0	0.00	30.117 
03:40	28.4	28.4	28.4	72	20.5	1	3	292	0.00	30.117 
03:45	28.4	28.4	28.4	72	20.5	1	5	338	0.00	30.118 
03:50	28.2	28.2	28.2	72	20.4	1	4	338	0.00	30.118 
03:55	28.2	28.2	28.2	72	20.4	0	3	338	0.00	30.118 
04:00	28.2	28.2	28.2	72	20.4	1	3	338	0.00	30.116 
04:05	28.1	28.1	28.1	72	20.3	1	2	0	0.00	30.116 
04:10	28.1	28.1	28.1	72	20.3	0	2	22	0.00	30.116 
04:15	28.1	28.1	28.1	72	20.3	1	3	0	0.00	30.118 
04:20	28.1	28.1	28.1	72	20.3	0	3	0	0.00	30.118 
04:25	27.9	27.9	27.9	72	20.1	0	2	0	0.00	30.118 
04:30	27.9	27.9	27.9	72	20.1	0	3	0	0.00	30.110 
04:35	27.9	27.9	27.9	73	20.4	0	1	0	0.00	30.110 
04:40	27.9	27.9	27.9	73	20.4	0	2	0	0.00	30.110 
04:45	27.9	27.9	27.9	73	20.4	0	1	0	0.00	30.108 
04:50	27.9	27.9	27.9	73	20.4	0	2	0	0.00	30.108 
04:55	27.9	27.9	27.9	73	20.4	0	1	0	0.00	30.108 
05:00	27.9	27.9	27.9	73	20.4	0	3	0	0.00	30.121 
05:05	27.9	27.9	27.9	73	20.4	0	2	0	0.00	30.121 
05:10	27.9	27.9	27.9	73	20.4	0	1	22	0.00	30.121 
05:15	27.9	27.9	27.9	74	20.7	0	3	90	0.00	30.121 
05:20	27.9	27.9	27.9	74	20.7	0	2	90	0.00	30.121 
05:25	27.9	27.9	27.9	74	20.7	0	3	135	0.00	30.121 
05:30	27.9	27.9	27.9	74	20.7	0	2	135	0.00	30.122 
05:35	27.9	27.9	27.9	74	20.7	0	2	45	0.00	30.122 
05:40	27.9	27.9	27.9	74	20.7	1	4	45	0.00	30.122 
05:45	27.9	27.9	27.9	74	20.7	0	2	45	0.00	30.122 
05:50	27.9	27.9	27.9	73	20.4	1	5	112	0.00	30.122 
05:55	28.1	28.1	28.1	73	20.6	1	4	68	0.00	30.122 
06:00	28.1	28.1	28.1	73	20.6	0	3	90	0.00	30.127 
06:05	28.1	28.1	28.1	72	20.3	1	4	90	0.00	30.127 
06:10	28.1	28.1	28.1	72	20.3	0	2	112	0.00	30.127 
06:15	28.2	28.2	28.2	72	20.4	0	2	112	0.00	30.135 
06:20	28.2	28.2	28.2	72	20.4	1	3	112	0.00	30.135 
06:25	28.2	28.2	28.2	72	20.4	1	3	112	0.00	30.135 
06:30	28.2	28.2	28.2	71	20.0	1	4	90	0.00	30.138 
06:35	28.2	28.2	28.2	72	20.4	1	4	112	0.00	30.138 
06:40	28.2	28.2	28.2	72	20.4	1	5	112	0.00	30.138 
06:45	28.2	28.2	28.2	72	20.4	0	2	45	0.00	30.151 
06:50	28.2	28.2	28.2	71	20.0	2	5	90	0.00	30.151 
06:55	28.2	28.2	28.2	71	20.0	1	4	90	0.00	30.151 
07:00	28.2	28.2	28.2	72	20.4	0	2	90	0.00	30.154 
07:05	28.2	28.2	28.2	71	20.0	2	4	90	0.00	30.154 
07:10	28.2	28.2	28.2	71	20.0	1	4	112	0.00	30.154 
07:15	28.2	28.2	28.2	72	20.4	1	3	112	0.00	30.155 
07:20	28.2	28.2	28.2	72	20.4	1	4	112	0.00	30.155 
07:25	28.2	28.2	28.2	72	20.4	1	4	112	0.00	30.155 
07:30	28.1	28.1	28.1	72	20.3	1	3	112	0.00	30.167 
07:35	28.1	28.1	28.1	72	20.3	1	3	90	0.00	30.167 
07:40	28.1	28.1	28.1	72	20.3	0	3	90	0.00	30.167 
07:45	28.1	28.1	28.1	72	20.3	1	3	90	0.00	30.170 
07:50	28.1	28.1	28.1	72	20.3	1	4	90	0.00	30.170 
07:55	28.2	28.2	28.2	72	20.4	0	1	90	0.00	30.170 
08:00	28.2	28.2	28.2	73	20.7	0	2	90	0.00	30.181 
08:05	28.2	28.2	28.2	73	20.7	0	3	90	0.00	30.181 
08:10	28.2	28.2	28.2	73	20.7	0	1	90	0.00	30.181 
08:15	28.2	28.2	28.2	73	20.7	0	1	90	0.00	30.197 
08:20	28.2	28.2	28.2	72	20.4	0	2	90	0.00	30.197 
08:25	28.2	28.2	28.2	72	20.4	0	2	90	0.00	30.197 
08:30	28.4	28.4	28.4	71	20.2	0	2	90	0.00	30.201 
08:35	28.4	28.4	28.4	72	20.5	1	2	90	0.00	30.201 
08:40	28.4	28.4	28.4	72	20.5	1	3	90	0.00	30.201 
08:45	28.5	28.5	28.5	71	20.3	2	5	90	0.00	30.210 
08:50	28.5	28.5	28.5	72	20.6	1	4	90	0.00	30.210 
08:55	28.5	28.5	28.5	72	20.6	2	5	112	0.00	30.210 
09:00	28.5	28.5	28.5	72	20.6	2	4	90	0.00	30.212 
09:05	28.5	28.5	28.5	71	20.3	2	5	90	0.00	30.212 
09:10	28.5	28.5	28.5	70	20.0	2	5	112	0.00	30.212 
09:15	28.5	28.5	28.5	70	20.0	2	5	90	0.00	30.218 
09:20	28.7	28.7	28.7	71	20.5	1	3	112	0.00	30.218 
09:25	28.8	28.8	28.8	71	20.6	1	3	90	0.00	30.218 
09:30	28.7	28.7	28.7	69	19.8	2	7	90	0.00	30.229 
09:35	28.7	28.7	28.7	69	19.8	2	6	112	0.00	30.229 
09:40	28.7	28.7	28.7	69	19.8	3	7	90	0.00	30.229 
09:45	28.8	28.8	28.8	69	19.9	2	5	112	0.00	30.232 
09:50	28.8	28.8	28.8	69	19.9	2	5	90	0.00	30.232 
09:55	28.8	28.8	28.8	69	19.9	2	6	112	0.00	30.232 
10:00	29.0	29.0	29.0	70	20.5	2	6	112	0.00	30.226 
10:05	29.1	29.1	29.1	70	20.6	2	9	112	0.00	30.226 
10:10	29.1	29.1	29.1	70	20.6	1	6	112	0.00	30.226 
10:15	29.1	29.1	29.1	70	20.6	2	6	112	0.00	30.219 
10:20	29.3	29.3	29.3	70	20.8	2	6	90	0.00	30.219 
10:25	29.0	24.6	29.0	69	20.1	4	10	112	0.00	30.219 
10:30	29.0	29.0	29.0	70	20.5	2	9	112	0.00	30.224 
10:35	29.0	29.0	29.0	70	20.5	2	6	112	0.00	30.224 
10:40	29.1	29.1	29.1	70	20.6	2	6	112	0.00	30.224 
10:45	29.1	29.1	29.1	70	20.6	2	6	112	0.00	30.220 
10:50	29.1	29.1	29.1	69	20.2	2	10	90	0.00	30.220 
10:55	29.0	24.6	29.0	65	18.7	4	9	112	0.00	30.220 
11:00	29.1	24.7	29.1	65	18.8	4	7	90	0.00	30.219 
11:05	29.3	25.0	29.3	64	18.7	4	13	112	0.00	30.219 
11:10	29.4	29.4	29.4	62	18.0	3	12	112	0.00	30.219 
11:15	30.0	24.7	30.0	60	17.8	5	11	112	0.00	30.218 
11:20	30.4	30.4	30.4	62	19.0	3	8	112	0.00	30.218 
11:25	30.4	30.4	30.4	60	18.2	3	10	112	0.00	30.218 
11:30	30.1	24.0	30.1	61	18.3	6	13	112	0.00	30.221 
11:35	30.1	23.2	30.1	61	18.3	7	14	90	0.00	30.221 
11:40	30.3	26.1	30.3	61	18.5	4	15	112	0.00	30.221 
11:45	30.3	25.1	30.3	62	18.9	5	15	112	0.00	30.225 
11:50	30.1	24.8	30.1	61	18.3	5	12	90	0.00	30.225 
11:55	30.4	25.2	30.4	62	19.0	5	13	90	0.00	30.225 
12:00	30.4	25.2	30.4	59	17.8	5	15	112	0.00	30.228 
12:05	30.4	30.4	30.4	60	18.2	3	10	90	0.00	30.228 
12:10	30.4	26.2	30.4	61	18.6	4	11	90	0.00	30.228 
12:15	30.6	30.6	30.6	62	19.2	3	10	112	0.00	30.229 
12:20	30.6	25.4	30.6	60	18.4	5	13	112	0.00	30.229 
12:25	30.7	25.5	30.7	58	17.7	5	11	90	0.00	30.229 
12:30	31.0	26.9	31.0	61	19.1	4	10	90	0.00	30.232 
12:35	31.0	25.9	31.0	58	18.0	5	13	112	0.00	30.232 
12:40	30.9	26.8	30.9	61	19.1	4	11	45	0.00	30.232 
12:45	31.0	25.0	31.0	57	17.6	6	13	112	0.00	30.230 
12:50	31.2	26.1	31.2	56	17.4	5	12	90	0.00	30.230 
12:55	31.5	26.5	31.5	58	18.4	5	10	90	0.00	30.230 
13:00	31.6	26.6	31.6	55	17.3	5	14	90	0.00	30.219 
13:05	31.5	26.5	31.5	59	18.8	5	12	90	0.00	30.219 
13:10	31.9	31.9	31.9	59	19.2	3	9	90	0.00	30.219 
13:15	31.9	28.0	31.9	58	18.8	4	11	90	0.00	30.220 
13:20	31.9	26.1	31.9	61	20.0	6	14	90	0.00	30.220 
13:25	32.2	32.2	32.2	61	20.3	3	11	90	0.00	30.220 
13:30	32.2	28.3	32.2	58	19.1	4	12	90	0.00	30.217 
13:35	32.4	28.5	32.4	58	19.3	4	12	90	0.00	30.217 
13:40	32.2	27.3	32.2	58	19.1	5	10	90	0.00	30.217 
13:45	32.1	28.2	32.1	59	19.4	4	11	90	0.00	30.220 
13:50	32.1	27.2	32.1	58	19.0	5	14	90	0.00	30.220 
13:55	32.5	28.7	32.5	57	19.0	4	13	112	0.00	30.220 
14:00	32.9	32.9	32.9	56	18.9	3	7	90	0.00	30.216 
14:05	33.1	27.5	33.1	57	19.5	6	13	90	0.00	30.216 
14:10	33.2	29.5	33.2	57	19.6	4	10	90	0.00	30.216 
14:15	33.5	29.8	33.5	56	19.5	4	10	90	0.00	30.214 
14:20	33.4	29.7	33.4	56	19.4	4	10	90	0.00	30.214 
14:25	33.5	33.5	33.5	58	20.3	3	7	112	0.00	30.214 
14:30	33.2	28.5	33.2	58	20.0	5	10	90	0.00	30.210 
14:35	32.9	28.1	32.9	58	19.8	5	10	90	0.00	30.210 
14:40	33.1	29.3	33.1	59	20.4	4	8	90	0.00	30.210 
14:45	32.9	28.1	32.9	58	19.8	5	13	90	0.00	30.209 
14:50	32.7	27.9	32.7	61	20.8	5	12	90	0.00	30.209 
14:55	32.8	29.0	32.8	61	20.9	4	9	112	0.00	30.209 
15:00	32.8	29.0	32.8	60	20.5	4	11	112	0.00	30.200 
15:05	32.7	27.9	32.7	60	20.4	5	12	90	0.00	30.200 
15:10	32.5	28.7	32.5	62	20.9	4	9	90	0.00	30.200 
15:15	32.5	26.8	32.5	62	20.9	6	11	90	0.00	30.199 
15:20	32.4	27.5	32.4	62	20.9	5	11	90	0.00	30.199 
15:25	32.7	28.9	32.7	63	21.5	4	11	90	0.00	30.199 
15:30	32.7	32.7	32.7	61	20.8	3	10	90	0.00	30.185 
15:35	32.5	27.7	32.5	61	20.6	5	11	90	0.00	30.185 
15:40	32.7	32.7	32.7	62	21.1	3	7	90	0.00	30.185 
15:45	32.9	32.9	32.9	63	21.7	3	9	90	0.00	30.184 
15:50	32.9	29.1	32.9	62	21.3	4	9	90	0.00	30.184 
15:55	32.7	28.9	32.7	62	21.1	4	10	90	0.00	30.184 
16:00	32.4	28.5	32.4	63	21.2	4	12	90	0.00	30.185 
16:05	32.4	28.5	32.4	64	21.6	4	7	90	0.00	30.185 
16:10	32.2	27.3	32.2	64	21.4	5	14	90	0.00	30.185 
16:15	32.2	28.3	32.2	64	21.4	4	9	90	0.00	30.184 
16:20	32.1	27.2	32.1	63	20.9	5	11	90	0.00	30.184 
16:25	31.9	26.1	31.9	63	20.8	6	11	90	0.00	30.184 
16:30	32.1	28.2	32.1	63	20.9	4	9	112	0.00	30.183 
16:35	31.9	26.1	31.9	64	21.1	6	11	90	0.00	30.183 
16:40	31.8	26.0	31.8	65	21.4	6	14	90	0.00	30.183 
16:45	31.8	31.8	31.8	66	21.8	3	8	90	0.00	30.186 
16:50	31.6	25.8	31.6	65	21.2	6	13	90	0.00	30.186 
16:55	31.5	26.5	31.5	65	21.1	5	14	90	0.00	30.186 
17:00	31.6	27.6	31.6	66	21.6	4	7	90	0.00	30.182 
17:05	31.8	26.8	31.8	64	21.0	5	10	90	0.00	30.182 
17:10	31.6	26.6	31.6	64	20.8	5	12	90	0.00	30.182 
17:15	31.6	27.6	31.6	64	20.8	4	7	90	0.00	30.179 
17:20	31.6	26.6	31.6	65	21.2	5	10	90	0.00	30.179 
17:25	31.6	27.6	31.6	65	21.2	4	13	90	0.00	30.179 
17:30	31.5	26.5	31.5	64	20.7	5	11	90	0.00	30.175 
17:35	31.5	27.5	31.5	64	20.7	4	12	90	0.00	30.175 
17:40	31.3	26.3	31.3	64	20.6	5	10	90	0.00	30.175 
17:45	31.3	26.3	31.3	65	20.9	5	9	90	0.00	30.170 
17:50	31.2	24.5	31.2	65	20.8	7	15	90	0.00	30.170 
17:55	31.0	25.9	31.0	65	20.6	5	13	90	0.00	30.170 
18:00	31.0	25.0	31.0	65	20.6	6	12	90	0.00	30.158 
18:05	31.0	25.0	31.0	66	21.0	6	13	90	0.00	30.158 
18:10	30.9	25.8	30.9	66	20.9	5	12	90	0.00	30.158 
18:15	30.9	24.9	30.9	66	20.9	6	12	90	0.00	30.155 
18:20	30.9	25.8	30.9	66	20.9	5	11	90	0.00	30.155 
18:25	30.9	26.8	30.9	67	21.3	4	11	90	0.00	30.155 
18:30	30.9	25.8	30.9	67	21.3	5	13	90	0.00	30.155 
18:35	30.9	26.8	30.9	68	21.6	4	12	90	0.00	30.155 
18:40	30.9	25.8	30.9	67	21.3	5	12	90	0.00	30.155 
18:45	30.9	24.9	30.9	67	21.3	6	13	90	0.00	30.152 
18:50	30.7	25.5	30.7	68	21.4	5	14	90	0.00	30.152 
18:55	30.7	26.6	30.7	69	21.8	4	10	90	0.00	30.152 
19:00	30.7	24.7	30.7	68	21.4	6	14	112	0.00	30.154 
19:05	30.4	24.3	30.4	67	20.8	6	15	90	0.00	30.154 
19:10	30.4	25.2	30.4	67	20.8	5	13	90	0.00	30.154 
19:15	30.4	25.2	30.4	67	20.8	5	14	90	0.00	30.162 
19:20	30.3	26.1	30.3	68	21.0	4	13	90	0.00	30.162 
19:25	30.3	25.1	30.3	68	21.0	5	10	90	0.00	30.162 
19:30	30.1	24.0	30.1	67	20.5	6	14	90	0.00	30.173 
19:35	30.1	25.9	30.1	67	20.5	4	11	90	0.00	30.173 
19:40	30.1	24.8	30.1	68	20.8	5	12	90	0.00	30.173 
19:45	30.0	25.8	30.0	68	20.7	4	10	90	0.00	30.172 
19:50	29.8	24.5	29.8	67	20.2	5	12	90	0.00	30.172 
19:55	29.8	24.5	29.8	67	20.2	5	11	90	0.00	30.172 
20:00	29.7	24.4	29.7	68	20.5	5	10	90	0.00	30.176 
20:05	29.7	25.4	29.7	68	20.5	4	10	90	0.00	30.176 
20:10	29.7	25.4	29.7	68	20.5	4	9	90	0.00	30.176 
20:15	29.7	25.4	29.7	68	20.5	4	9	90	0.00	30.187 
20:20	29.7	25.4	29.7	69	20.8	4	9	90	0.00	30.187 
20:25	29.7	25.4	29.7	69	20.8	4	11	90	0.00	30.187 
20:30	29.7	24.4	29.7	69	20.8	5	11	90	0.00	30.185 
20:35	29.5	23.3	29.5	69	20.6	6	14	90	0.00	30.185 
20:40	29.5	24.1	29.5	69	20.6	5	11	90	0.00	30.185 
20:45	29.5	24.1	29.5	69	20.6	5	11	90	0.00	30.183 
20:50	29.5	24.1	29.5	69	20.6	5	11	90	0.00	30.183 
20:55	29.4	23.1	29.4	69	20.5	6	14	90	0.00	30.183 
21:00	29.3	22.2	29.3	68	20.1	7	13	90	0.00	30.180 
21:05	29.3	23.0	29.3	69	20.4	6	14	112	0.00	30.180 
21:10	29.1	22.0	29.1	69	20.2	7	15	90	0.00	30.180 
21:15	29.1	22.0	29.1	69	20.2	7	15	90	0.00	30.171 
21:20	29.1	23.7	29.1	69	20.2	5	13	112	0.00	30.171 
21:25	29.1	23.7	29.1	69	20.2	5	14	90	0.00	30.171 
21:30	29.0	22.7	29.0	69	20.1	6	12	90	0.00	30.169 
21:35	29.1	24.7	29.1	70	20.6	4	11	68	0.00	30.169 
21:40	29.0	22.7	29.0	70	20.5	6	13	90	0.00	30.169 
21:45	29.0	21.2	29.0	70	20.5	8	19	90	0.00	30.165 
21:50	29.0	23.6	29.0	71	20.8	5	12	112	0.00	30.165 
21:55	28.8	23.3	28.8	71	20.6	5	13	112	0.00	30.165 
22:00	28.7	22.3	28.7	70	20.2	6	15	90	0.00	30.160 
22:05	28.5	23.0	28.5	69	19.6	5	12	90	0.00	30.160 
22:10	28.5	23.0	28.5	70	20.0	5	13	90	0.00	30.160 
22:15	28.5	24.0	28.5	71	20.3	4	11	90	0.00	30.146 
22:20	28.4	22.8	28.4	72	20.5	5	13	90	0.00	30.146 
22:25	28.4	22.8	28.4	72	20.5	5	12	90	0.00	30.146 
22:30	28.2	22.6	28.2	72	20.4	5	15	90	0.00	30.142 
22:35	28.2	22.6	28.2	72	20.4	5	13	90	0.00	30.142 
22:40	28.2	22.6	28.2	73	20.7	5	12	90	0.00	30.142 
22:45	28.1	21.6	28.1	73	20.6	6	12	90	0.00	30.135 
22:50	27.9	22.3	27.9	73	20.4	5	12	90	0.00	30.135 
22:55	27.9	23.3	27.9	73	20.4	4	10	90	0.00	30.135 
23:00	27.9	23.3	27.9	74	20.7	4	9	90	0.00	30.131 
23:05	27.8	20.4	27.8	74	20.6	7	13	90	0.00	30.131 
23:10	27.8	23.2	27.8	74	20.6	4	9	90	0.00	30.131 
23:15	27.8	22.1	27.8	74	20.6	5	12	112	0.00	30.127 
23:20	27.6	20.2	27.6	72	19.8	7	15	112	0.00	30.127 
23:25	27.5	20.1	27.5	72	19.7	7	13	90	0.00	30.127 
23:30	27.5	20.9	27.5	72	19.7	6	16	112	0.00	30.123 
23:35	27.5	20.9	27.5	73	20.0	6	13	90	0.00	30.123 
23:40	27.5	19.4	27.5	73	20.0	8	16	90	0.00	30.123 
23:45	27.5	21.8	27.5	73	20.0	5	12	90	0.00	30.117 
23:50	27.5	20.9	27.5	73	20.0	6	14	90	0.00	30.117 
23:55	27.5	20.1	27.5	73	20.0	7	13	112	0.00	30.117 

CoCoRaHS
IN-AL-39
A2 Web Hosting
Creative Commons License
GoDaddy
search engine by freefind advanced

loaded 2018-11-17 15:11:08 • last modified 2010-11-18 10:43:29
Privacy PolicyDisclaimer
• wx.awcolley.com is powered by PmWiki v.2002016 •
• all content (unless otherwise noted) © 2018 A W Colley